Time;durP1;ratioP1;P1;durP2;ratioP2;P2;SDS_P1;SDS_P2;PMS_P1;PMS_P2;Temp;Humidity;BMP_temperature;BMP_pressure;BME280_temperature;BME280_humidity;BME280_pressure;Samples;Min_cycle;Max_cycle;Signal;HPM_P1;HPM_P2
2023/08/06 00:01:10;;;;;;;904.72;813.17;;;;;;;;;;5043147;28;20111;-65
2023/08/06 00:03:36;;;;;;;900.40;811.90;;;;;;;;;;5044683;28;20121;-65
2023/08/06 00:06:05;;;;;;;893.58;805.78;;;;;;;;;;5041446;28;20041;-65
2023/08/06 00:08:31;;;;;;;902.03;811.30;;;;;;;;;;5040894;28;20117;-65
2023/08/06 00:10:58;;;;;;;894.05;805.25;;;;;;;;;;5042902;28;20128;-64
2023/08/06 00:13:24;;;;;;;898.72;806.90;;;;;;;;;;5041418;28;20060;-65
2023/08/06 00:15:51;;;;;;;896.65;809.63;;;;;;;;;;5042188;28;20082;-64
2023/08/06 00:18:17;;;;;;;897.55;810.30;;;;;;;;;;5042017;28;20526;-64
2023/08/06 00:20:44;;;;;;;898.65;810.00;;;;;;;;;;5040322;28;20064;-65
2023/08/06 00:23:11;;;;;;;905.13;812.58;;;;;;;;;;5043148;28;20070;-64
2023/08/06 00:25:49;;;;;;;902.72;812.47;;;;;;;;;;5042303;28;20123;-64
2023/08/06 00:28:15;;;;;;;906.22;814.45;;;;;;;;;;5040829;28;20045;-64
2023/08/06 00:30:42;;;;;;;896.70;808.03;;;;;;;;;;5046259;28;20436;-64
2023/08/06 00:33:09;;;;;;;899.97;811.75;;;;;;;;;;5045547;28;20454;-64
2023/08/06 00:35:37;;;;;;;911.53;819.35;;;;;;;;;;5042456;28;20037;-64
2023/08/06 00:38:03;;;;;;;896.60;807.00;;;;;;;;;;5041745;28;20362;-65
2023/08/06 00:40:30;;;;;;;906.78;817.20;;;;;;;;;;5041036;28;20053;-65
2023/08/06 00:42:57;;;;;;;890.55;805.72;;;;;;;;;;5040183;28;20538;-65
2023/08/06 00:45:24;;;;;;;903.30;815.90;;;;;;;;;;5039517;28;20053;-64
2023/08/06 00:47:51;;;;;;;901.13;810.65;;;;;;;;;;5055361;28;20049;-65
2023/08/06 00:50:18;;;;;;;894.42;807.83;;;;;;;;;;5042586;28;20037;-65
2023/08/06 00:52:45;;;;;;;912.30;822.28;;;;;;;;;;5041019;28;20040;-64
2023/08/06 00:55:11;;;;;;;897.38;808.85;;;;;;;;;;5037872;28;20159;-64
2023/08/06 00:57:38;;;;;;;900.70;811.97;;;;;;;;;;5051260;28;20053;-64
2023/08/06 01:00:05;;;;;;;901.85;812.20;;;;;;;;;;5041142;28;20124;-65
2023/08/06 01:02:32;;;;;;;901.78;812.72;;;;;;;;;;5054899;28;20052;-64
2023/08/06 01:04:58;;;;;;;904.72;815.28;;;;;;;;;;5041897;28;20123;-64
2023/08/06 01:07:31;;;;;;;905.13;815.85;;;;;;;;;;5042415;28;20043;-65
2023/08/06 01:10:06;;;;;;;881.10;795.23;;;;;;;;;;5043060;28;20144;-64
2023/08/06 01:12:44;;;;;;;892.90;805.03;;;;;;;;;;5055065;28;20045;-65
2023/08/06 01:15:17;;;;;;;887.15;799.75;;;;;;;;;;5039707;28;20041;-65
2023/08/06 01:17:44;;;;;;;882.35;795.95;;;;;;;;;;5041192;28;20536;-65
2023/08/06 01:20:11;;;;;;;903.55;814.60;;;;;;;;;;5053641;28;20045;-65
2023/08/06 01:22:38;;;;;;;899.55;809.10;;;;;;;;;;5040354;28;20049;-65
2023/08/06 01:25:04;;;;;;;887.05;801.47;;;;;;;;;;5038247;28;20037;-66
2023/08/06 01:27:57;;;;;;;880.03;794.85;;;;;;;;;;5042526;28;20064;-65
2023/08/06 01:30:30;;;;;;;878.80;793.35;;;;;;;;;;5040481;28;20060;-66
2023/08/06 01:33:01;;;;;;;882.35;798.67;;;;;;;;;;5038534;28;20034;-65
2023/08/06 01:35:29;;;;;;;879.63;794.35;;;;;;;;;;5040465;28;20132;-65
2023/08/06 01:37:59;;;;;;;880.25;795.88;;;;;;;;;;5054807;28;20060;-65
2023/08/06 01:40:28;;;;;;;883.35;797.55;;;;;;;;;;5041503;28;20478;-65
2023/08/06 01:42:55;;;;;;;874.15;791.45;;;;;;;;;;5044169;28;20547;-64
2023/08/06 01:45:21;;;;;;;874.45;789.72;;;;;;;;;;5040622;28;20038;-64
2023/08/06 01:47:49;;;;;;;886.85;800.58;;;;;;;;;;5056226;28;20123;-64
2023/08/06 01:50:15;;;;;;;887.38;802.45;;;;;;;;;;5036783;28;20437;-64
2023/08/06 01:52:44;;;;;;;886.22;799.53;;;;;;;;;;5055484;28;20154;-65
2023/08/06 01:55:10;;;;;;;883.20;797.42;;;;;;;;;;5038783;28;20120;-64
2023/08/06 01:57:37;;;;;;;881.97;795.65;;;;;;;;;;5054085;28;20032;-64
2023/08/06 02:00:04;;;;;;;885.58;799.10;;;;;;;;;;5040356;28;20095;-64
2023/08/06 02:02:40;;;;;;;894.97;808.65;;;;;;;;;;5016733;23;20140;-67
2023/08/06 02:05:08;;;;;;;904.72;817.38;;;;;;;;;;4988585;28;20100;-69
2023/08/06 02:07:34;;;;;;;899.03;812.75;;;;;;;;;;4990081;28;20038;-68
2023/08/06 02:10:02;;;;;;;890.28;804.15;;;;;;;;;;4989205;28;20053;-69
2023/08/06 02:12:29;;;;;;;883.17;798.90;;;;;;;;;;4988462;28;20042;-68
2023/08/06 02:14:55;;;;;;;879.50;796.55;;;;;;;;;;4988619;28;20088;-67
2023/08/06 02:17:22;;;;;;;880.35;796.60;;;;;;;;;;4988816;28;20101;-67
2023/08/06 02:19:48;;;;;;;885.50;801.03;;;;;;;;;;4989469;28;20572;-67
2023/08/06 02:22:15;;;;;;;877.35;792.78;;;;;;;;;;4989807;28;20560;-68
2023/08/06 02:24:42;;;;;;;887.13;802.38;;;;;;;;;;5003467;28;20138;-70
2023/08/06 02:27:09;;;;;;;887.35;802.67;;;;;;;;;;4984745;28;20550;-67
2023/08/06 02:29:36;;;;;;;895.97;810.83;;;;;;;;;;4989839;28;20528;-69
2023/08/06 02:32:03;;;;;;;883.70;800.70;;;;;;;;;;4990049;28;20507;-68
2023/08/06 02:34:30;;;;;;;889.58;802.13;;;;;;;;;;4990477;28;20053;-68
2023/08/06 02:36:56;;;;;;;881.97;799.47;;;;;;;;;;4989670;28;20038;-69
2023/08/06 02:39:23;;;;;;;892.88;806.95;;;;;;;;;;4987329;28;20086;-69
2023/08/06 02:41:50;;;;;;;885.13;802.95;;;;;;;;;;4987962;28;20042;-67
2023/08/06 02:44:17;;;;;;;893.88;808.53;;;;;;;;;;4988256;28;20666;-68
2023/08/06 02:46:44;;;;;;;894.80;807.13;;;;;;;;;;4989812;28;20738;-68
2023/08/06 02:49:12;;;;;;;886.22;802.65;;;;;;;;;;4988327;28;20096;-67
2023/08/06 02:51:38;;;;;;;888.65;803.90;;;;;;;;;;4989721;28;20049;-67
2023/08/06 02:54:05;;;;;;;886.92;802.92;;;;;;;;;;4989505;28;20062;-68
2023/08/06 02:56:33;;;;;;;889.90;804.75;;;;;;;;;;4987834;28;20051;-68
2023/08/06 02:59:15;;;;;;;881.38;798.65;;;;;;;;;;4984915;28;20049;-67
2023/08/06 03:01:51;;;;;;;891.83;807.13;;;;;;;;;;4987859;28;20119;-66
2023/08/06 03:04:27;;;;;;;891.35;808.30;;;;;;;;;;4986923;28;20128;-68
2023/08/06 03:06:54;;;;;;;894.00;808.75;;;;;;;;;;4980341;28;20060;-70
2023/08/06 03:09:24;;;;;;;897.20;810.78;;;;;;;;;;4987627;28;20054;-69
2023/08/06 03:11:51;;;;;;;892.67;809.22;;;;;;;;;;4988223;28;20504;-67
2023/08/06 03:14:18;;;;;;;889.03;805.25;;;;;;;;;;4987821;28;20066;-69
2023/08/06 03:16:45;;;;;;;897.65;810.13;;;;;;;;;;4987827;28;20053;-67
2023/08/06 03:19:15;;;;;;;894.10;809.55;;;;;;;;;;4989005;28;20500;-69
2023/08/06 03:21:41;;;;;;;900.75;816.40;;;;;;;;;;4987491;28;20050;-70
2023/08/06 03:24:08;;;;;;;899.53;812.30;;;;;;;;;;4989362;28;20050;-71
2023/08/06 03:26:37;;;;;;;898.55;814.47;;;;;;;;;;4987799;28;20444;-67
2023/08/06 03:29:04;;;;;;;901.08;813.75;;;;;;;;;;4987497;28;20054;-69
2023/08/06 03:31:33;;;;;;;909.78;821.97;;;;;;;;;;4988462;28;20064;-69
2023/08/06 03:34:00;;;;;;;893.53;810.70;;;;;;;;;;4991898;28;20049;-68
2023/08/06 03:36:29;;;;;;;896.33;811.85;;;;;;;;;;4991605;28;20058;-67
2023/08/06 03:38:56;;;;;;;893.35;809.33;;;;;;;;;;4989936;28;20047;-68
2023/08/06 03:41:22;;;;;;;896.63;813.00;;;;;;;;;;4991086;28;20444;-67
2023/08/06 03:43:49;;;;;;;905.03;819.03;;;;;;;;;;4991911;28;20050;-67
2023/08/06 03:46:22;;;;;;;900.10;815.80;;;;;;;;;;4991717;28;20093;-67
2023/08/06 03:48:48;;;;;;;900.40;815.75;;;;;;;;;;4990769;28;20050;-67
2023/08/06 03:51:15;;;;;;;902.78;817.95;;;;;;;;;;4992794;28;20128;-70
2023/08/06 03:53:43;;;;;;;892.72;807.58;;;;;;;;;;4991404;28;20463;-69
2023/08/06 03:56:10;;;;;;;910.28;822.35;;;;;;;;;;4991174;28;20074;-69
2023/08/06 03:58:37;;;;;;;914.55;823.45;;;;;;;;;;4991594;28;20053;-67
2023/08/06 04:01:03;;;;;;;905.70;821.13;;;;;;;;;;4991916;28;20051;-68
2023/08/06 04:03:36;;;;;;;905.60;820.17;;;;;;;;;;4991309;28;20065;-67
2023/08/06 04:06:03;;;;;;;902.72;818.50;;;;;;;;;;4991156;28;20042;-68
2023/08/06 04:08:30;;;;;;;911.55;827.55;;;;;;;;;;4984501;28;20054;-70
2023/08/06 04:10:56;;;;;;;902.97;817.85;;;;;;;;;;4990664;28;20419;-72
2023/08/06 04:13:23;;;;;;;903.40;818.80;;;;;;;;;;4993491;28;20070;-68
2023/08/06 04:15:49;;;;;;;905.30;822.22;;;;;;;;;;4991294;28;20054;-67
2023/08/06 04:18:16;;;;;;;915.15;830.80;;;;;;;;;;4990902;28;20117;-68
2023/08/06 04:20:44;;;;;;;908.40;822.45;;;;;;;;;;4992147;28;20080;-67
2023/08/06 04:23:10;;;;;;;913.55;825.75;;;;;;;;;;4990796;28;20050;-70
2023/08/06 04:25:38;;;;;;;918.03;829.55;;;;;;;;;;4989109;28;20404;-68
2023/08/06 04:28:04;;;;;;;906.47;822.85;;;;;;;;;;4991717;28;20116;-68
2023/08/06 04:30:31;;;;;;;912.70;828.50;;;;;;;;;;4990230;28;20495;-66
2023/08/06 04:32:58;;;;;;;922.53;837.72;;;;;;;;;;4990441;28;20420;-69
2023/08/06 04:35:26;;;;;;;914.55;831.38;;;;;;;;;;4992186;28;20432;-69
2023/08/06 04:37:52;;;;;;;913.42;829.60;;;;;;;;;;4990631;28;20054;-69
2023/08/06 04:40:19;;;;;;;916.17;832.40;;;;;;;;;;4991874;28;20073;-68
2023/08/06 04:42:46;;;;;;;921.90;835.80;;;;;;;;;;4991816;28;20042;-67
2023/08/06 04:45:12;;;;;;;921.85;837.13;;;;;;;;;;4991653;28;20503;-67
2023/08/06 04:47:39;;;;;;;921.65;837.10;;;;;;;;;;4991392;28;20496;-66
2023/08/06 04:50:05;;;;;;;923.28;837.88;;;;;;;;;;4991453;28;20539;-68
2023/08/06 04:52:32;;;;;;;940.22;849.78;;;;;;;;;;4986453;28;20500;-66
2023/08/06 04:54:59;;;;;;;941.33;854.50;;;;;;;;;;4990542;28;20051;-68
2023/08/06 04:57:25;;;;;;;951.22;865.45;;;;;;;;;;4991937;28;20104;-67
2023/08/06 04:59:52;;;;;;;971.78;884.22;;;;;;;;;;4991119;28;20039;-69
2023/08/06 05:02:18;;;;;;;995.20;905.58;;;;;;;;;;4989890;28;20057;-67
2023/08/06 05:04:45;;;;;;;1018.78;922.70;;;;;;;;;;4983449;28;20046;-67
2023/08/06 05:07:12;;;;;;;1028.68;934.22;;;;;;;;;;4990772;28;20050;-65
2023/08/06 05:09:38;;;;;;;1033.22;941.92;;;;;;;;;;4991138;28;20116;-66
2023/08/06 05:12:06;;;;;;;1042.75;950.15;;;;;;;;;;4991167;28;20042;-66
2023/08/06 05:14:32;;;;;;;1052.40;956.95;;;;;;;;;;4990675;28;20042;-65
2023/08/06 05:16:59;;;;;;;1054.53;961.92;;;;;;;;;;4973917;28;20046;-65
2023/08/06 05:19:26;;;;;;;1055.32;962.38;;;;;;;;;;4992180;28;20113;-67
2023/08/06 05:21:52;;;;;;;1059.32;965.40;;;;;;;;;;4991450;28;20492;-66
2023/08/06 05:24:19;;;;;;;1077.80;979.55;;;;;;;;;;4988082;28;20127;-66
2023/08/06 05:26:49;;;;;;;1074.45;979.20;;;;;;;;;;4991104;28;20054;-68
2023/08/06 05:29:16;;;;;;;1075.72;980.63;;;;;;;;;;4990840;28;20462;-65
2023/08/06 05:31:43;;;;;;;1091.18;992.10;;;;;;;;;;4973481;28;20516;-64
2023/08/06 05:34:09;;;;;;;1096.50;997.80;;;;;;;;;;4991855;28;20048;-64
2023/08/06 05:36:36;;;;;;;1104.25;999.70;;;;;;;;;;4990441;28;20074;-64
2023/08/06 05:39:02;;;;;;;1107.13;999.90;;;;;;;;;;4990752;28;20104;-65
2023/08/06 05:41:29;;;;;;;1115.55;999.90;;;;;;;;;;4990090;28;20133;-65
2023/08/06 05:43:55;;;;;;;1123.90;999.90;;;;;;;;;;4990520;28;20508;-70
2023/08/06 05:46:23;;;;;;;1131.97;999.90;;;;;;;;;;4991623;28;20074;-66
2023/08/06 05:48:50;;;;;;;1128.00;999.90;;;;;;;;;;4988482;28;20046;-67
2023/08/06 05:51:17;;;;;;;1133.85;999.90;;;;;;;;;;4978051;28;20056;-68
2023/08/06 05:53:45;;;;;;;1132.05;999.90;;;;;;;;;;4990255;28;20074;-65
2023/08/06 05:56:12;;;;;;;1134.35;999.90;;;;;;;;;;4978369;28;20042;-66
2023/08/06 05:58:39;;;;;;;1143.65;999.90;;;;;;;;;;4990839;28;20523;-66
2023/08/06 06:01:05;;;;;;;1130.18;999.90;;;;;;;;;;4990997;28;20057;-65
2023/08/06 06:03:32;;;;;;;1137.18;999.90;;;;;;;;;;4988328;28;20145;-65
2023/08/06 06:06:00;;;;;;;1135.93;999.90;;;;;;;;;;4990216;28;20046;-68
2023/08/06 06:08:27;;;;;;;1144.22;999.90;;;;;;;;;;4988775;28;20050;-66
2023/08/06 06:10:53;;;;;;;1148.47;999.90;;;;;;;;;;4988051;28;20041;-67
2023/08/06 06:13:20;;;;;;;1155.22;999.90;;;;;;;;;;4989628;28;20054;-66
2023/08/06 06:15:47;;;;;;;1161.28;999.90;;;;;;;;;;4989554;28;20046;-67
2023/08/06 06:18:14;;;;;;;1169.15;999.90;;;;;;;;;;4990362;28;20050;-67
2023/08/06 06:20:40;;;;;;;1178.57;999.90;;;;;;;;;;4989927;28;20120;-65
2023/08/06 06:23:07;;;;;;;1185.82;999.90;;;;;;;;;;4989701;28;20054;-65
2023/08/06 06:25:33;;;;;;;1195.15;999.90;;;;;;;;;;4988452;28;20156;-67
2023/08/06 06:28:00;;;;;;;1198.85;999.90;;;;;;;;;;4991001;28;20234;-67
2023/08/06 06:30:26;;;;;;;1196.57;999.90;;;;;;;;;;4989813;28;20054;-67
2023/08/06 06:32:53;;;;;;;1201.63;999.90;;;;;;;;;;4989759;28;20038;-66
2023/08/06 06:35:19;;;;;;;1209.25;999.90;;;;;;;;;;4988295;28;20070;-66
2023/08/06 06:37:46;;;;;;;1219.53;999.90;;;;;;;;;;4988387;28;20064;-66
2023/08/06 06:40:13;;;;;;;1209.57;999.90;;;;;;;;;;4990074;28;20511;-67
2023/08/06 06:42:39;;;;;;;1215.63;999.90;;;;;;;;;;4989255;28;20054;-66
2023/08/06 06:45:08;;;;;;;1216.95;999.90;;;;;;;;;;4987545;28;20058;-66
2023/08/06 06:47:34;;;;;;;1218.88;999.90;;;;;;;;;;4989195;28;20129;-67
2023/08/06 06:50:01;;;;;;;1214.85;999.90;;;;;;;;;;4989334;28;20039;-66
2023/08/06 06:52:28;;;;;;;1211.60;999.90;;;;;;;;;;4989849;28;20105;-73
2023/08/06 06:54:54;;;;;;;1213.10;999.90;;;;;;;;;;4989440;28;20499;-67
2023/08/06 06:57:21;;;;;;;1219.90;999.90;;;;;;;;;;4994821;28;20046;-65
2023/08/06 06:59:47;;;;;;;1220.55;999.90;;;;;;;;;;4987957;28;20042;-64
2023/08/06 07:02:14;;;;;;;1220.28;999.90;;;;;;;;;;4987799;28;20054;-67
2023/08/06 07:04:41;;;;;;;1232.93;999.90;;;;;;;;;;4989371;28;20055;-67
2023/08/06 07:07:07;;;;;;;1224.05;999.90;;;;;;;;;;4988623;28;20120;-65
2023/08/06 07:09:34;;;;;;;1218.57;999.90;;;;;;;;;;4988539;28;20423;-67
2023/08/06 07:12:01;;;;;;;1217.93;999.90;;;;;;;;;;4989191;28;20381;-67
2023/08/06 07:14:28;;;;;;;1222.85;999.90;;;;;;;;;;4987664;28;20054;-66
2023/08/06 07:16:55;;;;;;;1225.78;999.90;;;;;;;;;;4988022;28;20043;-69
2023/08/06 07:19:21;;;;;;;1226.82;999.90;;;;;;;;;;4988863;28;20050;-67
2023/08/06 07:21:48;;;;;;;1233.70;999.90;;;;;;;;;;4988791;28;20038;-66
2023/08/06 07:24:15;;;;;;;1240.55;999.90;;;;;;;;;;4989238;28;20081;-65
2023/08/06 07:26:41;;;;;;;1241.55;999.90;;;;;;;;;;4989034;28;20053;-66
2023/08/06 07:29:08;;;;;;;1241.35;999.90;;;;;;;;;;4988993;28;20045;-65
2023/08/06 07:31:35;;;;;;;1241.55;999.90;;;;;;;;;;4987799;28;20137;-65
2023/08/06 07:34:01;;;;;;;1237.68;999.90;;;;;;;;;;4985782;28;20117;-66
2023/08/06 07:36:28;;;;;;;1245.50;999.90;;;;;;;;;;4988368;28;20046;-69
2023/08/06 07:38:56;;;;;;;1236.90;999.90;;;;;;;;;;4989064;28;20043;-69
2023/08/06 07:41:23;;;;;;;1231.15;999.90;;;;;;;;;;4988787;28;20480;-67
2023/08/06 07:43:50;;;;;;;1241.82;999.90;;;;;;;;;;4988939;28;20042;-70
2023/08/06 07:46:16;;;;;;;1232.90;999.90;;;;;;;;;;4988566;28;20050;-66
2023/08/06 07:48:43;;;;;;;1236.75;999.90;;;;;;;;;;4986535;28;20137;-66
2023/08/06 07:51:10;;;;;;;1232.75;999.90;;;;;;;;;;4988476;28;20050;-66
2023/08/06 07:53:36;;;;;;;1226.47;999.90;;;;;;;;;;4988853;28;20039;-66
2023/08/06 07:56:03;;;;;;;1222.93;999.90;;;;;;;;;;4988479;28;20046;-66
2023/08/06 07:58:30;;;;;;;1220.35;999.90;;;;;;;;;;4985922;28;20108;-72
2023/08/06 08:00:56;;;;;;;1206.13;999.90;;;;;;;;;;4989456;28;20494;-67
2023/08/06 08:03:23;;;;;;;1203.93;999.90;;;;;;;;;;4988493;28;20416;-69
2023/08/06 08:05:51;;;;;;;1198.35;999.90;;;;;;;;;;4987109;28;20492;-65
2023/08/06 08:08:18;;;;;;;1192.88;999.90;;;;;;;;;;4986949;28;20050;-69
2023/08/06 08:10:45;;;;;;;1199.57;999.90;;;;;;;;;;4986442;28;20548;-67
2023/08/06 08:13:11;;;;;;;1183.68;999.90;;;;;;;;;;4988869;28;20046;-67
2023/08/06 08:15:38;;;;;;;1178.95;999.90;;;;;;;;;;4988610;28;20124;-65
2023/08/06 08:18:04;;;;;;;1176.47;999.90;;;;;;;;;;4987241;28;20050;-70
2023/08/06 08:20:32;;;;;;;1181.13;999.90;;;;;;;;;;4991096;28;20128;-67
2023/08/06 08:23:00;;;;;;;1176.47;999.90;;;;;;;;;;4983403;28;20054;-69
2023/08/06 08:25:27;;;;;;;1168.00;999.90;;;;;;;;;;4991417;28;20661;-66
2023/08/06 08:27:57;;;;;;;1166.43;999.90;;;;;;;;;;5007483;28;20058;-68
2023/08/06 08:30:24;;;;;;;1175.10;999.90;;;;;;;;;;4991257;28;20090;-67
2023/08/06 08:32:52;;;;;;;1177.80;999.90;;;;;;;;;;4990576;28;20416;-70
2023/08/06 08:35:18;;;;;;;1173.00;999.90;;;;;;;;;;4991705;28;20050;-65
2023/08/06 08:37:45;;;;;;;1181.22;999.90;;;;;;;;;;4990403;28;20077;-67
2023/08/06 08:40:13;;;;;;;1170.72;999.90;;;;;;;;;;4990769;28;20057;-66
2023/08/06 08:42:40;;;;;;;1172.75;999.90;;;;;;;;;;4984585;28;20059;-67
2023/08/06 08:45:14;;;;;;;1161.90;999.90;;;;;;;;;;4991808;28;20535;-67
2023/08/06 08:47:42;;;;;;;1161.28;999.90;;;;;;;;;;4973050;28;20062;-67
2023/08/06 08:50:10;;;;;;;1170.47;999.90;;;;;;;;;;4990090;28;20713;-68
2023/08/06 08:52:38;;;;;;;1167.20;999.90;;;;;;;;;;4991517;28;20153;-65
2023/08/06 08:55:06;;;;;;;1163.38;999.90;;;;;;;;;;4991783;28;20096;-70
2023/08/06 08:57:33;;;;;;;1166.20;999.90;;;;;;;;;;4989665;28;20061;-66
2023/08/06 08:59:59;;;;;;;1166.85;999.90;;;;;;;;;;4991438;28;20082;-69
2023/08/06 09:02:29;;;;;;;1165.95;999.90;;;;;;;;;;4991214;28;20061;-69
2023/08/06 09:04:59;;;;;;;1167.68;999.90;;;;;;;;;;4989974;28;20062;-69
2023/08/06 09:07:27;;;;;;;1162.03;999.90;;;;;;;;;;4974933;28;20053;-69
2023/08/06 09:09:54;;;;;;;1162.15;999.90;;;;;;;;;;4989527;28;20046;-67
2023/08/06 09:12:21;;;;;;;1159.13;999.90;;;;;;;;;;4989688;28;20381;-68
2023/08/06 09:14:47;;;;;;;1157.95;999.90;;;;;;;;;;4991176;28;20051;-67
2023/08/06 09:17:14;;;;;;;1160.63;999.90;;;;;;;;;;4990980;28;20890;-66
2023/08/06 09:19:45;;;;;;;1170.30;999.90;;;;;;;;;;4986263;28;20133;-73
2023/08/06 09:22:13;;;;;;;1160.82;999.90;;;;;;;;;;4991198;28;20385;-66
2023/08/06 09:24:43;;;;;;;1159.30;999.90;;;;;;;;;;4990663;28;20080;-67
2023/08/06 09:27:13;;;;;;;1172.50;999.90;;;;;;;;;;4973515;28;20600;-67
2023/08/06 09:29:41;;;;;;;1164.93;999.90;;;;;;;;;;4990840;28;20123;-67
2023/08/06 09:32:08;;;;;;;1166.88;999.90;;;;;;;;;;4989751;28;20045;-66
2023/08/06 09:34:35;;;;;;;1175.53;999.90;;;;;;;;;;4990804;28;20498;-66
2023/08/06 09:37:03;;;;;;;1174.63;999.90;;;;;;;;;;4991396;28;20050;-65
2023/08/06 09:39:30;;;;;;;1180.90;999.90;;;;;;;;;;4988812;28;20464;-72
2023/08/06 09:41:58;;;;;;;1164.38;999.90;;;;;;;;;;4990744;28;20058;-65
2023/08/06 09:44:29;;;;;;;1170.40;999.90;;;;;;;;;;4990590;28;20042;-71
2023/08/06 09:46:57;;;;;;;1173.05;999.90;;;;;;;;;;4990608;28;20116;-70
2023/08/06 09:49:27;;;;;;;1167.65;999.90;;;;;;;;;;4998838;28;20043;-67
2023/08/06 09:51:58;;;;;;;1167.90;999.90;;;;;;;;;;4972912;28;20136;-68
2023/08/06 09:54:26;;;;;;;1177.03;999.90;;;;;;;;;;4984979;28;20042;-69
2023/08/06 09:56:54;;;;;;;1168.75;999.90;;;;;;;;;;4990009;28;20228;-66
2023/08/06 09:59:22;;;;;;;1173.28;999.90;;;;;;;;;;4990407;28;20050;-66
2023/08/06 10:01:49;;;;;;;1185.95;999.90;;;;;;;;;;4988949;28;20104;-67
2023/08/06 10:04:16;;;;;;;1175.30;999.90;;;;;;;;;;4989695;28;20054;-71
2023/08/06 10:06:49;;;;;;;1171.10;999.90;;;;;;;;;;4990361;28;20097;-69
2023/08/06 10:09:16;;;;;;;1181.65;999.90;;;;;;;;;;4982765;28;20038;-66
2023/08/06 10:11:44;;;;;;;1177.07;999.90;;;;;;;;;;4988543;28;20499;-67
2023/08/06 10:14:12;;;;;;;1181.03;999.90;;;;;;;;;;4990101;28;20526;-66
2023/08/06 10:16:39;;;;;;;1185.25;999.90;;;;;;;;;;4986919;28;20538;-67
2023/08/06 10:19:08;;;;;;;1186.70;999.90;;;;;;;;;;4989285;28;20050;-68
2023/08/06 10:21:35;;;;;;;1185.22;999.90;;;;;;;;;;4990008;28;20046;-67
2023/08/06 10:24:03;;;;;;;1185.97;999.90;;;;;;;;;;4990017;28;20041;-70
2023/08/06 10:26:30;;;;;;;1182.05;999.90;;;;;;;;;;4988124;28;20078;-70
2023/08/06 10:28:57;;;;;;;1187.35;999.90;;;;;;;;;;4989682;28;20034;-73
2023/08/06 10:31:42;;;;;;;1184.13;999.90;;;;;;;;;;4990841;28;20046;-67
2023/08/06 10:34:09;;;;;;;1183.30;999.90;;;;;;;;;;4998421;28;20054;-73
2023/08/06 10:36:35;;;;;;;1176.90;999.90;;;;;;;;;;4989730;28;20786;-67
2023/08/06 10:39:02;;;;;;;1177.90;999.90;;;;;;;;;;4987940;28;20125;-66
2023/08/06 10:41:29;;;;;;;1177.68;999.90;;;;;;;;;;4988548;28;20443;-68
2023/08/06 10:44:08;;;;;;;1176.78;999.90;;;;;;;;;;4988011;28;20046;-68
2023/08/06 10:46:35;;;;;;;1185.07;999.90;;;;;;;;;;4989278;28;20416;-69
2023/08/06 10:49:03;;;;;;;1179.45;999.90;;;;;;;;;;4988478;28;20105;-67
2023/08/06 10:51:29;;;;;;;1184.00;999.90;;;;;;;;;;4989598;28;20092;-69
2023/08/06 10:53:57;;;;;;;1183.75;999.90;;;;;;;;;;4987984;28;20042;-71
2023/08/06 10:56:26;;;;;;;1186.28;999.90;;;;;;;;;;4987316;28;20049;-69
2023/08/06 10:58:58;;;;;;;1195.90;999.90;;;;;;;;;;4989337;28;20058;-69
2023/08/06 11:01:28;;;;;;;1192.97;999.90;;;;;;;;;;4990247;28;20062;-66
2023/08/06 11:03:56;;;;;;;1192.28;999.90;;;;;;;;;;4987428;28;20050;-71
2023/08/06 11:06:23;;;;;;;1195.50;999.90;;;;;;;;;;4987808;28;20045;-71
2023/08/06 11:08:50;;;;;;;1183.55;999.90;;;;;;;;;;4985626;28;20698;-68
2023/08/06 11:11:17;;;;;;;1186.97;999.90;;;;;;;;;;4985104;28;20046;-68
2023/08/06 11:13:47;;;;;;;1199.53;999.90;;;;;;;;;;4977822;28;20136;-67
2023/08/06 11:16:15;;;;;;;1187.25;999.90;;;;;;;;;;4976480;28;20126;-67
2023/08/06 11:18:42;;;;;;;1189.32;999.90;;;;;;;;;;4985825;28;20050;-67
2023/08/06 11:21:09;;;;;;;1194.40;999.90;;;;;;;;;;4985088;28;20066;-69
2023/08/06 11:23:36;;;;;;;1181.78;999.90;;;;;;;;;;4984883;28;20643;-68
2023/08/06 11:26:03;;;;;;;1180.05;999.90;;;;;;;;;;4987350;28;20132;-67
2023/08/06 11:28:29;;;;;;;1187.35;999.90;;;;;;;;;;4988663;28;20738;-70
2023/08/06 11:30:57;;;;;;;1186.70;999.90;;;;;;;;;;4989336;28;20050;-69
2023/08/06 11:33:27;;;;;;;1181.03;999.90;;;;;;;;;;4989025;28;20133;-70
2023/08/06 11:35:55;;;;;;;1204.03;999.90;;;;;;;;;;4988760;28;20122;-69
2023/08/06 11:38:21;;;;;;;1188.43;999.90;;;;;;;;;;4971446;28;20439;-68
2023/08/06 11:40:48;;;;;;;1190.40;999.90;;;;;;;;;;4988391;28;20552;-69
2023/08/06 11:43:15;;;;;;;1181.18;999.90;;;;;;;;;;4989928;28;20050;-67
2023/08/06 11:45:41;;;;;;;1179.00;999.90;;;;;;;;;;4988758;28;20063;-69
2023/08/06 11:48:11;;;;;;;1181.88;999.90;;;;;;;;;;4988148;28;20138;-70
2023/08/06 11:50:40;;;;;;;1177.00;999.90;;;;;;;;;;4988479;28;20109;-67
2023/08/06 11:53:07;;;;;;;1179.30;999.90;;;;;;;;;;4987301;28;20043;-71
2023/08/06 11:55:35;;;;;;;1169.82;999.90;;;;;;;;;;4992718;28;20128;-68
2023/08/06 11:58:05;;;;;;;1177.93;999.90;;;;;;;;;;4992992;28;20133;-73
2023/08/06 12:00:31;;;;;;;1174.82;999.90;;;;;;;;;;4990875;28;20051;-69
2023/08/06 12:02:58;;;;;;;1175.72;999.90;;;;;;;;;;4992152;28;20404;-69
2023/08/06 12:05:33;;;;;;;1169.40;999.90;;;;;;;;;;4992604;28;20556;-69
2023/08/06 12:08:00;;;;;;;1172.80;999.90;;;;;;;;;;4991328;28;20048;-67
2023/08/06 12:10:28;;;;;;;1166.90;999.90;;;;;;;;;;4992767;28;20073;-69
2023/08/06 12:12:55;;;;;;;1178.25;999.90;;;;;;;;;;4983748;28;20051;-69
2023/08/06 12:15:22;;;;;;;1180.03;999.90;;;;;;;;;;4988319;28;20043;-67
2023/08/06 12:17:49;;;;;;;1171.30;999.90;;;;;;;;;;4992271;28;20104;-68
2023/08/06 12:20:15;;;;;;;1178.05;999.90;;;;;;;;;;4992199;28;20042;-71
2023/08/06 12:22:42;;;;;;;1175.32;999.90;;;;;;;;;;4991288;28;20050;-67
2023/08/06 12:25:11;;;;;;;1173.65;999.90;;;;;;;;;;4990942;28;20051;-69
2023/08/06 12:27:38;;;;;;;1170.80;999.90;;;;;;;;;;4992416;28;20038;-71
2023/08/06 12:30:05;;;;;;;1168.07;999.90;;;;;;;;;;4991856;28;20109;-70
2023/08/06 12:32:33;;;;;;;1169.10;999.90;;;;;;;;;;4991912;28;20062;-68
2023/08/06 12:35:03;;;;;;;1171.10;999.90;;;;;;;;;;4982496;28;20078;-67
2023/08/06 12:37:30;;;;;;;1163.70;999.90;;;;;;;;;;4991264;28;20046;-71
2023/08/06 12:39:56;;;;;;;1161.68;999.90;;;;;;;;;;4989533;28;20046;-70
2023/08/06 12:42:24;;;;;;;1164.65;999.90;;;;;;;;;;4991584;28;20084;-68
2023/08/06 12:44:51;;;;;;;1160.88;999.90;;;;;;;;;;4991702;28;20050;-69
2023/08/06 12:47:17;;;;;;;1163.18;999.90;;;;;;;;;;4989622;28;20066;-70
2023/08/06 12:49:44;;;;;;;1169.85;999.90;;;;;;;;;;4990153;28;20053;-69
2023/08/06 12:52:12;;;;;;;1163.28;999.90;;;;;;;;;;4991099;28;20667;-68
2023/08/06 12:54:39;;;;;;;1158.85;999.90;;;;;;;;;;4990678;28;20042;-69
2023/08/06 12:57:05;;;;;;;1158.75;999.90;;;;;;;;;;4991328;28;20042;-68
2023/08/06 12:59:33;;;;;;;1154.30;999.90;;;;;;;;;;4991639;28;20073;-68
2023/08/06 13:02:00;;;;;;;1157.60;999.90;;;;;;;;;;4989893;28;20149;-70
2023/08/06 13:04:27;;;;;;;1158.93;999.90;;;;;;;;;;4989033;28;20043;-68
2023/08/06 13:06:54;;;;;;;1154.22;999.90;;;;;;;;;;4989608;28;20046;-70
2023/08/06 13:09:21;;;;;;;1157.68;999.90;;;;;;;;;;4989412;28;20137;-69
2023/08/06 13:11:50;;;;;;;1151.13;999.90;;;;;;;;;;4991004;28;20089;-68
2023/08/06 13:14:16;;;;;;;1154.57;999.90;;;;;;;;;;4988534;28;20588;-68
2023/08/06 13:16:44;;;;;;;1160.53;999.90;;;;;;;;;;4989662;28;20042;-73
2023/08/06 13:19:13;;;;;;;1158.47;999.90;;;;;;;;;;4990510;28;20101;-66
2023/08/06 13:21:45;;;;;;;1156.20;999.90;;;;;;;;;;4991178;28;20042;-66
2023/08/06 13:24:12;;;;;;;1159.32;999.90;;;;;;;;;;4990581;28;20428;-67
2023/08/06 13:26:38;;;;;;;1157.35;999.90;;;;;;;;;;4990564;28;20038;-69
2023/08/06 13:29:07;;;;;;;1163.45;999.90;;;;;;;;;;4990775;28;20050;-75
2023/08/06 13:31:33;;;;;;;1156.85;999.90;;;;;;;;;;4990382;28;20057;-75
2023/08/06 13:34:00;;;;;;;1161.43;999.90;;;;;;;;;;4983952;28;20519;-70
2023/08/06 13:36:27;;;;;;;1161.35;999.90;;;;;;;;;;4989050;28;20692;-66
2023/08/06 13:38:54;;;;;;;1165.65;999.90;;;;;;;;;;4990884;28;20046;-68
2023/08/06 13:41:20;;;;;;;1164.35;999.90;;;;;;;;;;4980949;28;20783;-69
2023/08/06 13:43:47;;;;;;;1180.30;999.90;;;;;;;;;;4990772;28;20042;-66
2023/08/06 13:46:16;;;;;;;1166.40;999.90;;;;;;;;;;4991194;28;20046;-65